sensor_id;sensor_type;location;lat;lon;timestamp;P1;durP1;ratioP1;P2;durP2;ratioP2
57858;SDS011;49153;45.568;11.894;2022-07-06T00:00:48;2.45;;;1.30;;
57858;SDS011;49153;45.568;11.894;2022-07-06T00:03:14;2.42;;;1.50;;
57858;SDS011;49153;45.568;11.894;2022-07-06T00:05:39;2.45;;;1.42;;
57858;SDS011;49153;45.568;11.894;2022-07-06T00:08:05;1.63;;;1.45;;
57858;SDS011;49153;45.568;11.894;2022-07-06T00:10:31;4.07;;;1.60;;
57858;SDS011;49153;45.568;11.894;2022-07-06T00:12:56;1.30;;;1.00;;
57858;SDS011;49153;45.568;11.894;2022-07-06T00:15:23;2.85;;;1.35;;
57858;SDS011;49153;45.568;11.894;2022-07-06T00:17:50;2.50;;;1.60;;
57858;SDS011;49153;45.568;11.894;2022-07-06T00:20:15;2.00;;;1.52;;
57858;SDS011;49153;45.568;11.894;2022-07-06T00:22:41;2.67;;;1.85;;
57858;SDS011;49153;45.568;11.894;2022-07-06T00:25:07;4.15;;;1.90;;
57858;SDS011;49153;45.568;11.894;2022-07-06T00:27:33;2.53;;;1.63;;
57858;SDS011;49153;45.568;11.894;2022-07-06T00:29:58;5.30;;;1.85;;
57858;SDS011;49153;45.568;11.894;2022-07-06T00:32:24;4.18;;;1.73;;
57858;SDS011;49153;45.568;11.894;2022-07-06T00:34:50;4.03;;;1.70;;
57858;SDS011;49153;45.568;11.894;2022-07-06T00:37:16;4.32;;;1.80;;
57858;SDS011;49153;45.568;11.894;2022-07-06T00:39:41;2.75;;;1.40;;
57858;SDS011;49153;45.568;11.894;2022-07-06T00:42:07;2.95;;;1.80;;
57858;SDS011;49153;45.568;11.894;2022-07-06T00:44:32;2.30;;;2.00;;
57858;SDS011;49153;45.568;11.894;2022-07-06T00:46:58;2.78;;;1.75;;
57858;SDS011;49153;45.568;11.894;2022-07-06T00:49:24;4.10;;;1.77;;
57858;SDS011;49153;45.568;11.894;2022-07-06T00:52:08;3.35;;;1.83;;
57858;SDS011;49153;45.568;11.894;2022-07-06T00:54:34;3.25;;;1.77;;
57858;SDS011;49153;45.568;11.894;2022-07-06T00:57:01;3.05;;;1.90;;
57858;SDS011;49153;45.568;11.894;2022-07-06T00:59:28;4.75;;;1.63;;
57858;SDS011;49153;45.568;11.894;2022-07-06T01:01:53;5.20;;;1.85;;
57858;SDS011;49153;45.568;11.894;2022-07-06T01:04:19;3.17;;;1.88;;
57858;SDS011;49153;45.568;11.894;2022-07-06T01:06:45;2.40;;;1.95;;
57858;SDS011;49153;45.568;11.894;2022-07-06T01:09:12;4.38;;;2.10;;
57858;SDS011;49153;45.568;11.894;2022-07-06T01:11:37;2.95;;;1.83;;
57858;SDS011;49153;45.568;11.894;2022-07-06T01:14:03;3.33;;;1.92;;
57858;SDS011;49153;45.568;11.894;2022-07-06T01:16:28;3.00;;;2.20;;
57858;SDS011;49153;45.568;11.894;2022-07-06T01:18:55;2.47;;;1.73;;
57858;SDS011;49153;45.568;11.894;2022-07-06T01:21:20;5.10;;;1.90;;
57858;SDS011;49153;45.568;11.894;2022-07-06T01:23:46;2.28;;;1.70;;
57858;SDS011;49153;45.568;11.894;2022-07-06T01:26:13;4.53;;;2.20;;
57858;SDS011;49153;45.568;11.894;2022-07-06T01:28:40;3.05;;;2.00;;
57858;SDS011;49153;45.568;11.894;2022-07-06T01:31:20;3.28;;;2.15;;
57858;SDS011;49153;45.568;11.894;2022-07-06T01:33:51;2.95;;;2.08;;
57858;SDS011;49153;45.568;11.894;2022-07-06T01:36:17;2.37;;;2.17;;
57858;SDS011;49153;45.568;11.894;2022-07-06T01:38:50;2.35;;;2.13;;
57858;SDS011;49153;45.568;11.894;2022-07-06T01:41:17;3.30;;;2.00;;
57858;SDS011;49153;45.568;11.894;2022-07-06T01:43:43;2.33;;;2.13;;
57858;SDS011;49153;45.568;11.894;2022-07-06T01:46:09;3.35;;;2.20;;
57858;SDS011;49153;45.568;11.894;2022-07-06T01:48:34;2.55;;;1.88;;
57858;SDS011;49153;45.568;11.894;2022-07-06T01:51:00;4.18;;;2.30;;
57858;SDS011;49153;45.568;11.894;2022-07-06T01:53:26;2.75;;;2.50;;
57858;SDS011;49153;45.568;11.894;2022-07-06T01:55:51;3.38;;;2.60;;
57858;SDS011;49153;45.568;11.894;2022-07-06T01:58:17;2.83;;;2.38;;
57858;SDS011;49153;45.568;11.894;2022-07-06T02:00:43;2.72;;;2.30;;
57858;SDS011;49153;45.568;11.894;2022-07-06T02:03:08;2.88;;;2.15;;
57858;SDS011;49153;45.568;11.894;2022-07-06T02:05:34;2.30;;;2.10;;
57858;SDS011;49153;45.568;11.894;2022-07-06T02:07:59;2.50;;;2.25;;
57858;SDS011;49153;45.568;11.894;2022-07-06T02:10:24;3.20;;;2.35;;
57858;SDS011;49153;45.568;11.894;2022-07-06T02:12:50;3.05;;;2.30;;
57858;SDS011;49153;45.568;11.894;2022-07-06T02:15:15;3.20;;;2.50;;
57858;SDS011;49153;45.568;11.894;2022-07-06T02:17:41;2.50;;;2.30;;
57858;SDS011;49153;45.568;11.894;2022-07-06T02:20:07;3.88;;;2.65;;
57858;SDS011;49153;45.568;11.894;2022-07-06T02:22:33;3.33;;;2.53;;
57858;SDS011;49153;45.568;11.894;2022-07-06T02:24:58;3.75;;;2.85;;
57858;SDS011;49153;45.568;11.894;2022-07-06T02:27:24;3.15;;;2.83;;
57858;SDS011;49153;45.568;11.894;2022-07-06T02:29:50;3.97;;;3.00;;
57858;SDS011;49153;45.568;11.894;2022-07-06T02:32:16;3.40;;;2.63;;
57858;SDS011;49153;45.568;11.894;2022-07-06T02:34:42;3.22;;;2.92;;
57858;SDS011;49153;45.568;11.894;2022-07-06T02:37:07;3.47;;;3.10;;
57858;SDS011;49153;45.568;11.894;2022-07-06T02:39:33;3.25;;;2.58;;
57858;SDS011;49153;45.568;11.894;2022-07-06T02:41:58;2.55;;;2.35;;
57858;SDS011;49153;45.568;11.894;2022-07-06T02:44:24;3.70;;;2.88;;
57858;SDS011;49153;45.568;11.894;2022-07-06T02:46:49;3.95;;;2.67;;
57858;SDS011;49153;45.568;11.894;2022-07-06T02:49:14;2.55;;;2.35;;
57858;SDS011;49153;45.568;11.894;2022-07-06T02:51:40;2.90;;;2.70;;
57858;SDS011;49153;45.568;11.894;2022-07-06T02:54:05;3.75;;;2.95;;
57858;SDS011;49153;45.568;11.894;2022-07-06T02:56:31;2.95;;;2.63;;
57858;SDS011;49153;45.568;11.894;2022-07-06T02:58:56;4.38;;;2.78;;
57858;SDS011;49153;45.568;11.894;2022-07-06T03:01:22;3.58;;;2.88;;
57858;SDS011;49153;45.568;11.894;2022-07-06T03:03:47;3.13;;;2.83;;
57858;SDS011;49153;45.568;11.894;2022-07-06T03:06:13;3.58;;;2.80;;
57858;SDS011;49153;45.568;11.894;2022-07-06T03:08:38;3.40;;;2.78;;
57858;SDS011;49153;45.568;11.894;2022-07-06T03:11:03;2.95;;;2.65;;
57858;SDS011;49153;45.568;11.894;2022-07-06T03:13:29;4.68;;;2.78;;
57858;SDS011;49153;45.568;11.894;2022-07-06T03:15:55;3.85;;;2.63;;
57858;SDS011;49153;45.568;11.894;2022-07-06T03:18:20;3.72;;;2.65;;
57858;SDS011;49153;45.568;11.894;2022-07-06T03:20:46;4.70;;;3.22;;
57858;SDS011;49153;45.568;11.894;2022-07-06T03:23:11;5.20;;;2.85;;
57858;SDS011;49153;45.568;11.894;2022-07-06T03:25:37;3.40;;;2.75;;
57858;SDS011;49153;45.568;11.894;2022-07-06T03:28:02;3.42;;;3.08;;
57858;SDS011;49153;45.568;11.894;2022-07-06T03:30:28;3.22;;;2.92;;
57858;SDS011;49153;45.568;11.894;2022-07-06T03:32:54;5.90;;;3.20;;
57858;SDS011;49153;45.568;11.894;2022-07-06T03:35:19;3.40;;;2.90;;
57858;SDS011;49153;45.568;11.894;2022-07-06T03:37:45;4.60;;;3.03;;
57858;SDS011;49153;45.568;11.894;2022-07-06T03:40:10;4.43;;;2.95;;
57858;SDS011;49153;45.568;11.894;2022-07-06T03:42:36;4.20;;;3.00;;
57858;SDS011;49153;45.568;11.894;2022-07-06T03:45:02;3.53;;;3.22;;
57858;SDS011;49153;45.568;11.894;2022-07-06T03:47:29;4.85;;;3.30;;
57858;SDS011;49153;45.568;11.894;2022-07-06T03:49:55;4.10;;;2.97;;
57858;SDS011;49153;45.568;11.894;2022-07-06T03:52:20;5.80;;;3.63;;
57858;SDS011;49153;45.568;11.894;2022-07-06T03:54:46;3.33;;;3.03;;
57858;SDS011;49153;45.568;11.894;2022-07-06T03:57:11;4.43;;;3.60;;
57858;SDS011;49153;45.568;11.894;2022-07-06T03:59:38;3.67;;;3.38;;
57858;SDS011;49153;45.568;11.894;2022-07-06T04:02:04;4.75;;;3.25;;
57858;SDS011;49153;45.568;11.894;2022-07-06T04:04:30;4.35;;;3.22;;
57858;SDS011;49153;45.568;11.894;2022-07-06T04:06:55;4.38;;;3.40;;
57858;SDS011;49153;45.568;11.894;2022-07-06T04:09:21;3.92;;;3.08;;
57858;SDS011;49153;45.568;11.894;2022-07-06T04:11:46;5.60;;;3.65;;
57858;SDS011;49153;45.568;11.894;2022-07-06T04:14:11;3.85;;;3.53;;
57858;SDS011;49153;45.568;11.894;2022-07-06T04:16:37;4.50;;;3.20;;
57858;SDS011;49153;45.568;11.894;2022-07-06T04:19:02;4.55;;;3.38;;
57858;SDS011;49153;45.568;11.894;2022-07-06T04:21:28;3.83;;;3.20;;
57858;SDS011;49153;45.568;11.894;2022-07-06T04:23:53;3.35;;;2.88;;
57858;SDS011;49153;45.568;11.894;2022-07-06T04:26:19;3.95;;;3.30;;
57858;SDS011;49153;45.568;11.894;2022-07-06T04:28:44;4.57;;;3.30;;
57858;SDS011;49153;45.568;11.894;2022-07-06T04:31:10;5.05;;;3.38;;
57858;SDS011;49153;45.568;11.894;2022-07-06T04:33:35;5.93;;;3.38;;
57858;SDS011;49153;45.568;11.894;2022-07-06T04:36:01;3.67;;;3.25;;
57858;SDS011;49153;45.568;11.894;2022-07-06T04:38:26;4.18;;;2.95;;
57858;SDS011;49153;45.568;11.894;2022-07-06T04:40:52;3.53;;;3.00;;
57858;SDS011;49153;45.568;11.894;2022-07-06T04:43:17;3.92;;;3.55;;
57858;SDS011;49153;45.568;11.894;2022-07-06T04:45:43;3.53;;;3.15;;
57858;SDS011;49153;45.568;11.894;2022-07-06T04:48:08;5.97;;;3.42;;
57858;SDS011;49153;45.568;11.894;2022-07-06T04:50:34;4.05;;;2.95;;
57858;SDS011;49153;45.568;11.894;2022-07-06T04:52:59;4.78;;;3.42;;
57858;SDS011;49153;45.568;11.894;2022-07-06T04:55:25;3.17;;;2.88;;
57858;SDS011;49153;45.568;11.894;2022-07-06T04:57:50;4.03;;;3.25;;
57858;SDS011;49153;45.568;11.894;2022-07-06T05:00:20;4.03;;;3.30;;
57858;SDS011;49153;45.568;11.894;2022-07-06T05:02:46;5.20;;;3.28;;
57858;SDS011;49153;45.568;11.894;2022-07-06T05:05:11;4.38;;;3.40;;
57858;SDS011;49153;45.568;11.894;2022-07-06T05:07:37;4.95;;;3.67;;
57858;SDS011;49153;45.568;11.894;2022-07-06T05:10:07;5.18;;;3.60;;
57858;SDS011;49153;45.568;11.894;2022-07-06T05:12:36;5.07;;;3.75;;
57858;SDS011;49153;45.568;11.894;2022-07-06T05:15:03;4.88;;;3.83;;
57858;SDS011;49153;45.568;11.894;2022-07-06T05:17:29;5.15;;;3.78;;
57858;SDS011;49153;45.568;11.894;2022-07-06T05:19:54;6.70;;;4.30;;
57858;SDS011;49153;45.568;11.894;2022-07-06T05:22:21;6.90;;;4.40;;
57858;SDS011;49153;45.568;11.894;2022-07-06T05:24:47;5.07;;;4.05;;
57858;SDS011;49153;45.568;11.894;2022-07-06T05:27:12;5.25;;;3.75;;
57858;SDS011;49153;45.568;11.894;2022-07-06T05:29:38;4.28;;;3.83;;
57858;SDS011;49153;45.568;11.894;2022-07-06T05:32:06;5.20;;;3.67;;
57858;SDS011;49153;45.568;11.894;2022-07-06T05:34:33;3.88;;;3.47;;
57858;SDS011;49153;45.568;11.894;2022-07-06T05:36:59;9.25;;;3.60;;
57858;SDS011;49153;45.568;11.894;2022-07-06T05:39:25;6.53;;;3.35;;
57858;SDS011;49153;45.568;11.894;2022-07-06T05:41:50;4.40;;;3.15;;
57858;SDS011;49153;45.568;11.894;2022-07-06T05:44:15;4.45;;;3.47;;
57858;SDS011;49153;45.568;11.894;2022-07-06T05:46:41;5.00;;;3.08;;
57858;SDS011;49153;45.568;11.894;2022-07-06T05:49:07;4.93;;;3.15;;
57858;SDS011;49153;45.568;11.894;2022-07-06T05:51:51;3.95;;;3.17;;
57858;SDS011;49153;45.568;11.894;2022-07-06T05:54:16;6.03;;;3.10;;
57858;SDS011;49153;45.568;11.894;2022-07-06T05:56:42;4.13;;;3.00;;
57858;SDS011;49153;45.568;11.894;2022-07-06T05:59:07;3.58;;;2.97;;
57858;SDS011;49153;45.568;11.894;2022-07-06T06:01:33;4.80;;;3.10;;
57858;SDS011;49153;45.568;11.894;2022-07-06T06:03:58;3.33;;;2.63;;
57858;SDS011;49153;45.568;11.894;2022-07-06T06:06:32;3.53;;;2.72;;
57858;SDS011;49153;45.568;11.894;2022-07-06T06:08:57;4.93;;;2.90;;
57858;SDS011;49153;45.568;11.894;2022-07-06T06:11:23;5.90;;;2.80;;
57858;SDS011;49153;45.568;11.894;2022-07-06T06:13:48;5.00;;;2.92;;
57858;SDS011;49153;45.568;11.894;2022-07-06T06:16:14;3.70;;;2.50;;
57858;SDS011;49153;45.568;11.894;2022-07-06T06:18:40;6.03;;;2.63;;
57858;SDS011;49153;45.568;11.894;2022-07-06T06:21:06;3.20;;;2.33;;
57858;SDS011;49153;45.568;11.894;2022-07-06T06:23:31;3.60;;;2.67;;
57858;SDS011;49153;45.568;11.894;2022-07-06T06:25:57;3.65;;;2.75;;
57858;SDS011;49153;45.568;11.894;2022-07-06T06:28:22;2.97;;;2.47;;
57858;SDS011;49153;45.568;11.894;2022-07-06T06:30:48;4.72;;;2.70;;
57858;SDS011;49153;45.568;11.894;2022-07-06T06:33:17;3.95;;;2.83;;
57858;SDS011;49153;45.568;11.894;2022-07-06T06:35:45;3.60;;;2.50;;
57858;SDS011;49153;45.568;11.894;2022-07-06T06:38:15;3.50;;;2.42;;
57858;SDS011;49153;45.568;11.894;2022-07-06T06:40:41;4.07;;;2.67;;
57858;SDS011;49153;45.568;11.894;2022-07-06T06:43:07;2.55;;;2.35;;
57858;SDS011;49153;45.568;11.894;2022-07-06T06:45:34;3.08;;;2.35;;
57858;SDS011;49153;45.568;11.894;2022-07-06T06:47:59;3.85;;;2.30;;
57858;SDS011;49153;45.568;11.894;2022-07-06T06:50:25;4.43;;;2.50;;
57858;SDS011;49153;45.568;11.894;2022-07-06T06:52:51;2.97;;;2.40;;
57858;SDS011;49153;45.568;11.894;2022-07-06T06:55:16;2.17;;;2.00;;
57858;SDS011;49153;45.568;11.894;2022-07-06T06:57:42;3.55;;;2.33;;
57858;SDS011;49153;45.568;11.894;2022-07-06T07:00:08;3.83;;;2.42;;
57858;SDS011;49153;45.568;11.894;2022-07-06T07:02:34;4.28;;;2.38;;
57858;SDS011;49153;45.568;11.894;2022-07-06T07:05:00;2.42;;;2.00;;
57858;SDS011;49153;45.568;11.894;2022-07-06T07:07:27;3.78;;;2.30;;
57858;SDS011;49153;45.568;11.894;2022-07-06T07:09:52;2.35;;;2.15;;
57858;SDS011;49153;45.568;11.894;2022-07-06T07:12:18;3.25;;;2.10;;
57858;SDS011;49153;45.568;11.894;2022-07-06T07:14:44;2.83;;;1.92;;
57858;SDS011;49153;45.568;11.894;2022-07-06T07:17:11;2.55;;;2.10;;
57858;SDS011;49153;45.568;11.894;2022-07-06T07:19:38;2.97;;;1.90;;
57858;SDS011;49153;45.568;11.894;2022-07-06T07:22:04;1.95;;;1.73;;
57858;SDS011;49153;45.568;11.894;2022-07-06T07:24:30;2.90;;;2.00;;
57858;SDS011;49153;45.568;11.894;2022-07-06T07:26:57;3.17;;;2.10;;
57858;SDS011;49153;45.568;11.894;2022-07-06T07:29:22;2.58;;;2.20;;
57858;SDS011;49153;45.568;11.894;2022-07-06T07:31:48;3.40;;;2.10;;
57858;SDS011;49153;45.568;11.894;2022-07-06T07:34:13;2.72;;;2.10;;
57858;SDS011;49153;45.568;11.894;2022-07-06T07:36:40;2.35;;;2.15;;
57858;SDS011;49153;45.568;11.894;2022-07-06T07:39:06;3.10;;;1.98;;
57858;SDS011;49153;45.568;11.894;2022-07-06T07:41:31;2.30;;;1.80;;
57858;SDS011;49153;45.568;11.894;2022-07-06T07:43:59;2.95;;;1.90;;
57858;SDS011;49153;45.568;11.894;2022-07-06T07:46:24;2.95;;;1.75;;
57858;SDS011;49153;45.568;11.894;2022-07-06T07:48:50;2.42;;;1.73;;
57858;SDS011;49153;45.568;11.894;2022-07-06T07:51:15;2.42;;;2.00;;
57858;SDS011;49153;45.568;11.894;2022-07-06T07:53:40;2.58;;;2.10;;
57858;SDS011;49153;45.568;11.894;2022-07-06T07:56:06;2.58;;;1.90;;
57858;SDS011;49153;45.568;11.894;2022-07-06T07:58:31;2.90;;;2.08;;
57858;SDS011;49153;45.568;11.894;2022-07-06T08:00:57;2.20;;;2.00;;
57858;SDS011;49153;45.568;11.894;2022-07-06T08:03:22;3.03;;;1.90;;
57858;SDS011;49153;45.568;11.894;2022-07-06T08:05:48;3.38;;;1.70;;
57858;SDS011;49153;45.568;11.894;2022-07-06T08:08:14;1.42;;;1.33;;
57858;SDS011;49153;45.568;11.894;2022-07-06T08:10:40;2.38;;;1.67;;
57858;SDS011;49153;45.568;11.894;2022-07-06T08:13:05;2.55;;;1.55;;
57858;SDS011;49153;45.568;11.894;2022-07-06T08:15:32;2.28;;;1.60;;
57858;SDS011;49153;45.568;11.894;2022-07-06T08:17:58;1.90;;;1.50;;
57858;SDS011;49153;45.568;11.894;2022-07-06T08:20:24;2.20;;;1.75;;
57858;SDS011;49153;45.568;11.894;2022-07-06T08:22:49;2.85;;;1.65;;
57858;SDS011;49153;45.568;11.894;2022-07-06T08:25:15;1.75;;;1.55;;
57858;SDS011;49153;45.568;11.894;2022-07-06T08:27:42;1.70;;;1.60;;
57858;SDS011;49153;45.568;11.894;2022-07-06T08:30:08;2.13;;;1.60;;
57858;SDS011;49153;45.568;11.894;2022-07-06T08:32:41;3.15;;;1.70;;
57858;SDS011;49153;45.568;11.894;2022-07-06T08:35:08;2.33;;;1.88;;
57858;SDS011;49153;45.568;11.894;2022-07-06T08:37:34;2.50;;;1.75;;
57858;SDS011;49153;45.568;11.894;2022-07-06T08:40:00;2.10;;;1.90;;
57858;SDS011;49153;45.568;11.894;2022-07-06T08:42:29;2.00;;;1.40;;
57858;SDS011;49153;45.568;11.894;2022-07-06T08:45:00;1.63;;;1.52;;
57858;SDS011;49153;45.568;11.894;2022-07-06T08:47:28;2.10;;;1.80;;
57858;SDS011;49153;45.568;11.894;2022-07-06T08:49:55;2.95;;;1.50;;
57858;SDS011;49153;45.568;11.894;2022-07-06T08:52:21;1.70;;;1.60;;
57858;SDS011;49153;45.568;11.894;2022-07-06T08:54:50;2.28;;;1.50;;
57858;SDS011;49153;45.568;11.894;2022-07-06T08:57:16;1.48;;;1.38;;
57858;SDS011;49153;45.568;11.894;2022-07-06T08:59:42;2.25;;;1.70;;
57858;SDS011;49153;45.568;11.894;2022-07-06T09:02:11;3.00;;;1.60;;
57858;SDS011;49153;45.568;11.894;2022-07-06T09:04:39;1.60;;;1.50;;
57858;SDS011;49153;45.568;11.894;2022-07-06T09:07:08;1.60;;;1.48;;
57858;SDS011;49153;45.568;11.894;2022-07-06T09:09:33;1.77;;;1.55;;
57858;SDS011;49153;45.568;11.894;2022-07-06T09:12:01;1.85;;;1.50;;
57858;SDS011;49153;45.568;11.894;2022-07-06T09:14:27;2.70;;;1.80;;
57858;SDS011;49153;45.568;11.894;2022-07-06T09:17:04;2.10;;;1.75;;
57858;SDS011;49153;45.568;11.894;2022-07-06T09:19:31;3.13;;;1.60;;
57858;SDS011;49153;45.568;11.894;2022-07-06T09:21:58;2.80;;;1.75;;
57858;SDS011;49153;45.568;11.894;2022-07-06T09:24:24;2.58;;;1.70;;
57858;SDS011;49153;45.568;11.894;2022-07-06T09:26:55;2.28;;;1.70;;
57858;SDS011;49153;45.568;11.894;2022-07-06T09:29:32;2.40;;;1.60;;
57858;SDS011;49153;45.568;11.894;2022-07-06T09:31:58;2.95;;;1.70;;
57858;SDS011;49153;45.568;11.894;2022-07-06T09:34:24;3.13;;;1.70;;
57858;SDS011;49153;45.568;11.894;2022-07-06T09:36:51;3.08;;;1.63;;
57858;SDS011;49153;45.568;11.894;2022-07-06T09:41:52;2.50;;;1.70;;
57858;SDS011;49153;45.568;11.894;2022-07-06T09:44:32;1.80;;;1.70;;
57858;SDS011;49153;45.568;11.894;2022-07-06T09:47:00;13.55;;;1.92;;
57858;SDS011;49153;45.568;11.894;2022-07-06T09:49:28;2.20;;;1.60;;
57858;SDS011;49153;45.568;11.894;2022-07-06T09:51:55;2.05;;;1.55;;
57858;SDS011;49153;45.568;11.894;2022-07-06T09:54:22;2.33;;;1.70;;
57858;SDS011;49153;45.568;11.894;2022-07-06T09:56:49;3.55;;;1.80;;
57858;SDS011;49153;45.568;11.894;2022-07-06T09:59:16;2.08;;;1.63;;
57858;SDS011;49153;45.568;11.894;2022-07-06T10:01:43;2.13;;;1.50;;
57858;SDS011;49153;45.568;11.894;2022-07-06T10:04:10;1.88;;;1.33;;
57858;SDS011;49153;45.568;11.894;2022-07-06T10:06:39;2.93;;;1.70;;
57858;SDS011;49153;45.568;11.894;2022-07-06T10:09:06;2.22;;;1.80;;
57858;SDS011;49153;45.568;11.894;2022-07-06T10:14:31;1.92;;;1.70;;
57858;SDS011;49153;45.568;11.894;2022-07-06T10:16:58;2.65;;;1.83;;
57858;SDS011;49153;45.568;11.894;2022-07-06T10:19:26;2.08;;;1.70;;
57858;SDS011;49153;45.568;11.894;2022-07-06T10:21:52;2.10;;;1.77;;
57858;SDS011;49153;45.568;11.894;2022-07-06T10:24:21;1.60;;;1.50;;
57858;SDS011;49153;45.568;11.894;2022-07-06T10:26:47;2.10;;;1.90;;
57858;SDS011;49153;45.568;11.894;2022-07-06T10:29:13;2.25;;;1.90;;
57858;SDS011;49153;45.568;11.894;2022-07-06T10:31:48;2.67;;;1.52;;
57858;SDS011;49153;45.568;11.894;2022-07-06T10:34:15;2.67;;;2.10;;
57858;SDS011;49153;45.568;11.894;2022-07-06T10:36:43;3.83;;;1.90;;
57858;SDS011;49153;45.568;11.894;2022-07-06T10:39:10;2.15;;;1.95;;
57858;SDS011;49153;45.568;11.894;2022-07-06T10:41:55;2.95;;;2.17;;
57858;SDS011;49153;45.568;11.894;2022-07-06T10:44:24;2.15;;;1.70;;
57858;SDS011;49153;45.568;11.894;2022-07-06T10:46:55;2.20;;;1.80;;
57858;SDS011;49153;45.568;11.894;2022-07-06T10:49:24;2.15;;;1.60;;
57858;SDS011;49153;45.568;11.894;2022-07-06T10:51:51;1.80;;;1.70;;
57858;SDS011;49153;45.568;11.894;2022-07-06T10:54:18;1.75;;;1.65;;
57858;SDS011;49153;45.568;11.894;2022-07-06T10:56:48;2.35;;;1.85;;
57858;SDS011;49153;45.568;11.894;2022-07-06T11:04:44;2.00;;;1.80;;
57858;SDS011;49153;45.568;11.894;2022-07-06T11:07:11;2.10;;;1.90;;
57858;SDS011;49153;45.568;11.894;2022-07-06T11:09:41;3.28;;;1.60;;
57858;SDS011;49153;45.568;11.894;2022-07-06T11:12:18;2.67;;;1.30;;
57858;SDS011;49153;45.568;11.894;2022-07-06T11:14:45;1.58;;;1.48;;
57858;SDS011;49153;45.568;11.894;2022-07-06T11:17:12;2.35;;;1.40;;
57858;SDS011;49153;45.568;11.894;2022-07-06T11:19:38;1.95;;;1.40;;
57858;SDS011;49153;45.568;11.894;2022-07-06T11:22:12;2.45;;;1.45;;
57858;SDS011;49153;45.568;11.894;2022-07-06T11:24:41;2.05;;;1.40;;
57858;SDS011;49153;45.568;11.894;2022-07-06T11:27:07;2.30;;;1.45;;
57858;SDS011;49153;45.568;11.894;2022-07-06T11:29:33;3.72;;;1.70;;
57858;SDS011;49153;45.568;11.894;2022-07-06T11:32:04;1.50;;;1.40;;
57858;SDS011;49153;45.568;11.894;2022-07-06T11:34:34;2.22;;;1.23;;
57858;SDS011;49153;45.568;11.894;2022-07-06T11:37:03;2.90;;;1.40;;
57858;SDS011;49153;45.568;11.894;2022-07-06T11:39:39;2.20;;;1.42;;
57858;SDS011;49153;45.568;11.894;2022-07-06T11:42:09;1.73;;;1.55;;
57858;SDS011;49153;45.568;11.894;2022-07-06T11:44:37;1.65;;;1.50;;
57858;SDS011;49153;45.568;11.894;2022-07-06T11:47:03;4.00;;;1.30;;
57858;SDS011;49153;45.568;11.894;2022-07-06T11:49:31;1.20;;;1.10;;
57858;SDS011;49153;45.568;11.894;2022-07-06T11:51:57;2.45;;;1.50;;
57858;SDS011;49153;45.568;11.894;2022-07-06T11:54:23;1.90;;;1.42;;
57858;SDS011;49153;45.568;11.894;2022-07-06T11:59:26;2.17;;;1.40;;
57858;SDS011;49153;45.568;11.894;2022-07-06T12:01:59;2.42;;;1.48;;
57858;SDS011;49153;45.568;11.894;2022-07-06T12:04:26;2.30;;;1.30;;
57858;SDS011;49153;45.568;11.894;2022-07-06T12:06:52;1.73;;;1.17;;
57858;SDS011;49153;45.568;11.894;2022-07-06T12:09:17;1.70;;;1.40;;
57858;SDS011;49153;45.568;11.894;2022-07-06T12:11:45;1.52;;;1.30;;
57858;SDS011;49153;45.568;11.894;2022-07-06T12:14:20;2.75;;;1.17;;
57858;SDS011;49153;45.568;11.894;2022-07-06T12:16:47;1.70;;;1.20;;
57858;SDS011;49153;45.568;11.894;2022-07-06T12:19:14;3.72;;;1.40;;
57858;SDS011;49153;45.568;11.894;2022-07-06T12:21:44;1.52;;;1.20;;
57858;SDS011;49153;45.568;11.894;2022-07-06T12:26:44;1.52;;;1.05;;
57858;SDS011;49153;45.568;11.894;2022-07-06T12:29:11;2.17;;;1.20;;
57858;SDS011;49153;45.568;11.894;2022-07-06T12:31:53;1.20;;;1.10;;
57858;SDS011;49153;45.568;11.894;2022-07-06T12:34:25;1.20;;;1.00;;
57858;SDS011;49153;45.568;11.894;2022-07-06T12:37:06;1.63;;;1.30;;
57858;SDS011;49153;45.568;11.894;2022-07-06T12:39:40;1.30;;;1.17;;
57858;SDS011;49153;45.568;11.894;2022-07-06T12:42:06;2.28;;;1.40;;
57858;SDS011;49153;45.568;11.894;2022-07-06T12:44:32;1.58;;;1.10;;
57858;SDS011;49153;45.568;11.894;2022-07-06T12:47:06;2.17;;;1.25;;
57858;SDS011;49153;45.568;11.894;2022-07-06T12:49:33;1.13;;;1.02;;
57858;SDS011;49153;45.568;11.894;2022-07-06T12:52:01;1.92;;;1.20;;
57858;SDS011;49153;45.568;11.894;2022-07-06T12:54:34;1.05;;;1.00;;
57858;SDS011;49153;45.568;11.894;2022-07-06T12:57:14;1.40;;;0.95;;
57858;SDS011;49153;45.568;11.894;2022-07-06T12:59:48;1.25;;;1.10;;
57858;SDS011;49153;45.568;11.894;2022-07-06T13:02:23;2.90;;;1.08;;
57858;SDS011;49153;45.568;11.894;2022-07-06T13:05:06;1.20;;;1.10;;
57858;SDS011;49153;45.568;11.894;2022-07-06T13:07:33;1.58;;;1.02;;
57858;SDS011;49153;45.568;11.894;2022-07-06T13:10:00;1.38;;;1.10;;
57858;SDS011;49153;45.568;11.894;2022-07-06T13:12:28;1.00;;;1.00;;
57858;SDS011;49153;45.568;11.894;2022-07-06T13:14:53;1.20;;;1.10;;
57858;SDS011;49153;45.568;11.894;2022-07-06T13:17:19;1.17;;;1.02;;
57858;SDS011;49153;45.568;11.894;2022-07-06T13:19:44;1.83;;;1.08;;
57858;SDS011;49153;45.568;11.894;2022-07-06T13:22:10;1.38;;;1.20;;
57858;SDS011;49153;45.568;11.894;2022-07-06T13:24:35;1.00;;;1.00;;
57858;SDS011;49153;45.568;11.894;2022-07-06T13:27:02;1.10;;;1.00;;
57858;SDS011;49153;45.568;11.894;2022-07-06T13:29:27;5.22;;;1.05;;
57858;SDS011;49153;45.568;11.894;2022-07-06T13:31:53;1.83;;;1.00;;
57858;SDS011;49153;45.568;11.894;2022-07-06T13:34:19;3.70;;;1.17;;
57858;SDS011;49153;45.568;11.894;2022-07-06T13:36:45;2.35;;;0.90;;
57858;SDS011;49153;45.568;11.894;2022-07-06T13:39:10;1.00;;;0.95;;
57858;SDS011;49153;45.568;11.894;2022-07-06T13:41:36;1.20;;;1.00;;
57858;SDS011;49153;45.568;11.894;2022-07-06T13:44:02;1.30;;;1.08;;
57858;SDS011;49153;45.568;11.894;2022-07-06T13:46:28;1.50;;;1.20;;
57858;SDS011;49153;45.568;11.894;2022-07-06T13:48:55;0.98;;;0.90;;
57858;SDS011;49153;45.568;11.894;2022-07-06T13:51:22;1.10;;;1.00;;
57858;SDS011;49153;45.568;11.894;2022-07-06T13:53:48;1.38;;;1.20;;
57858;SDS011;49153;45.568;11.894;2022-07-06T13:56:14;1.23;;;1.10;;
57858;SDS011;49153;45.568;11.894;2022-07-06T13:58:39;1.42;;;1.10;;
57858;SDS011;49153;45.568;11.894;2022-07-06T14:01:05;1.77;;;1.10;;
57858;SDS011;49153;45.568;11.894;2022-07-06T14:03:30;1.35;;;1.02;;
57858;SDS011;49153;45.568;11.894;2022-07-06T14:06:00;1.88;;;1.10;;
57858;SDS011;49153;45.568;11.894;2022-07-06T14:08:27;1.30;;;1.20;;
57858;SDS011;49153;45.568;11.894;2022-07-06T14:10:53;1.92;;;1.08;;
57858;SDS011;49153;45.568;11.894;2022-07-06T14:13:20;2.38;;;1.20;;
57858;SDS011;49153;45.568;11.894;2022-07-06T14:15:47;1.20;;;1.10;;
57858;SDS011;49153;45.568;11.894;2022-07-06T14:18:13;0.90;;;0.90;;
57858;SDS011;49153;45.568;11.894;2022-07-06T14:20:39;1.90;;;1.00;;
57858;SDS011;49153;45.568;11.894;2022-07-06T14:23:06;1.40;;;1.30;;
57858;SDS011;49153;45.568;11.894;2022-07-06T14:25:31;1.42;;;1.20;;
57858;SDS011;49153;45.568;11.894;2022-07-06T14:27:57;1.92;;;1.13;;
57858;SDS011;49153;45.568;11.894;2022-07-06T14:30:23;1.77;;;1.15;;
57858;SDS011;49153;45.568;11.894;2022-07-06T14:32:48;1.23;;;0.93;;
57858;SDS011;49153;45.568;11.894;2022-07-06T14:35:14;1.65;;;1.02;;
57858;SDS011;49153;45.568;11.894;2022-07-06T14:37:39;1.33;;;1.10;;
57858;SDS011;49153;45.568;11.894;2022-07-06T14:40:05;1.88;;;1.00;;
57858;SDS011;49153;45.568;11.894;2022-07-06T14:42:31;1.02;;;1.02;;
57858;SDS011;49153;45.568;11.894;2022-07-06T14:44:57;1.45;;;1.10;;
57858;SDS011;49153;45.568;11.894;2022-07-06T14:47:22;1.05;;;0.93;;